<?xml version="1.0" encoding="UTF-8" standalone="no" ?>
<gpx xmlns="http://www.topografix.com/GPX/1/1" xmlns:xsi="http://www.w3.org/2001/XMLSchema-instance" xsi:schemaLocation="http://www.topografix.com/GPX/1/1 http://www.topografix.com/GPX/1/1/gpx.xsd" version="1.1" creator="VisuGPX - https://www.visugpx.com">
  <metadata>
    <name>Trace TV 2014 J1</name>
    <desc><![CDATA[Trace TV 2014 J1 - Première participation avec mon CUBE]]></desc>
  </metadata>
  <trk>
    <name><![CDATA[20180601145005-xrCrT]]></name>
    <trkseg>
      <trkpt lat="44.29114" lon="5.4416">
        <ele>632.7</ele>
        <time>2014-05-17T10:09:19Z</time>
      </trkpt>
      <trkpt lat="44.29113" lon="5.44205">
        <ele>635</ele>
        <time>2014-05-17T10:11:18Z</time>
      </trkpt>
      <trkpt lat="44.29144" lon="5.44255">
        <ele>637.3</ele>
        <time>2014-05-17T10:11:45Z</time>
      </trkpt>
      <trkpt lat="44.29151" lon="5.44304">
        <ele>642.4</ele>
        <time>2014-05-17T10:12:32Z</time>
      </trkpt>
      <trkpt lat="44.29156" lon="5.44272">
        <ele>638.6</ele>
        <time>2014-05-17T11:02:16Z</time>
      </trkpt>
      <trkpt lat="44.29127" lon="5.4422">
        <ele>635.5</ele>
        <time>2014-05-17T11:02:28Z</time>
      </trkpt>
      <trkpt lat="44.29111" lon="5.4417">
        <ele>633.2</ele>
        <time>2014-05-17T11:03:37Z</time>
      </trkpt>
      <trkpt lat="44.29115" lon="5.44164">
        <ele>632.9</ele>
        <time>2014-05-17T11:17:26Z</time>
      </trkpt>
      <trkpt lat="44.29125" lon="5.44219">
        <ele>635.4</ele>
        <time>2014-05-17T11:17:42Z</time>
      </trkpt>
      <trkpt lat="44.29155" lon="5.44267">
        <ele>638.3</ele>
        <time>2014-05-17T11:17:57Z</time>
      </trkpt>
      <trkpt lat="44.2918" lon="5.44317">
        <ele>641.5</ele>
        <time>2014-05-17T11:18:55Z</time>
      </trkpt>
      <trkpt lat="44.29203" lon="5.44373">
        <ele>643.8</ele>
        <time>2014-05-17T11:19:15Z</time>
      </trkpt>
      <trkpt lat="44.29197" lon="5.44437">
        <ele>647.4</ele>
        <time>2014-05-17T11:19:37Z</time>
      </trkpt>
      <trkpt lat="44.29195" lon="5.44504">
        <ele>651.1</ele>
        <time>2014-05-17T11:20:00Z</time>
      </trkpt>
      <trkpt lat="44.29212" lon="5.44561">
        <ele>653.3</ele>
        <time>2014-05-17T11:20:23Z</time>
      </trkpt>
      <trkpt lat="44.29245" lon="5.44602">
        <ele>656.8</ele>
        <time>2014-05-17T11:20:43Z</time>
      </trkpt>
      <trkpt lat="44.29279" lon="5.44645">
        <ele>661.5</ele>
        <time>2014-05-17T11:21:04Z</time>
      </trkpt>
      <trkpt lat="44.29315" lon="5.44687">
        <ele>666.3</ele>
        <time>2014-05-17T11:21:27Z</time>
      </trkpt>
      <trkpt lat="44.29349" lon="5.44727">
        <ele>671.6</ele>
        <time>2014-05-17T11:21:52Z</time>
      </trkpt>
      <trkpt lat="44.29383" lon="5.44769">
        <ele>676.3</ele>
        <time>2014-05-17T11:22:23Z</time>
      </trkpt>
      <trkpt lat="44.29423" lon="5.44799">
        <ele>679.7</ele>
        <time>2014-05-17T11:22:45Z</time>
      </trkpt>
      <trkpt lat="44.29413" lon="5.44849">
        <ele>684</ele>
        <time>2014-05-17T11:23:07Z</time>
      </trkpt>
      <trkpt lat="44.29403" lon="5.44912">
        <ele>685.4</ele>
        <time>2014-05-17T11:23:29Z</time>
      </trkpt>
      <trkpt lat="44.29404" lon="5.44977">
        <ele>686.3</ele>
        <time>2014-05-17T11:23:46Z</time>
      </trkpt>
      <trkpt lat="44.29388" lon="5.45034">
        <ele>687.3</ele>
        <time>2014-05-17T11:24:04Z</time>
      </trkpt>
      <trkpt lat="44.29372" lon="5.45097">
        <ele>689.1</ele>
        <time>2014-05-17T11:24:26Z</time>
      </trkpt>
      <trkpt lat="44.29352" lon="5.45155">
        <ele>691.2</ele>
        <time>2014-05-17T11:24:49Z</time>
      </trkpt>
      <trkpt lat="44.29333" lon="5.45213">
        <ele>692.3</ele>
        <time>2014-05-17T11:25:06Z</time>
      </trkpt>
      <trkpt lat="44.29303" lon="5.45261">
        <ele>692.9</ele>
        <time>2014-05-17T11:25:23Z</time>
      </trkpt>
      <trkpt lat="44.29275" lon="5.45314">
        <ele>695.3</ele>
        <time>2014-05-17T11:25:43Z</time>
      </trkpt>
      <trkpt lat="44.29277" lon="5.45377">
        <ele>701.7</ele>
        <time>2014-05-17T11:26:05Z</time>
      </trkpt>
      <trkpt lat="44.29255" lon="5.4543">
        <ele>703.6</ele>
        <time>2014-05-17T11:26:31Z</time>
      </trkpt>
      <trkpt lat="44.29233" lon="5.45485">
        <ele>699.1</ele>
        <time>2014-05-17T11:26:53Z</time>
      </trkpt>
      <trkpt lat="44.29277" lon="5.45494">
        <ele>699.4</ele>
        <time>2014-05-17T11:27:19Z</time>
      </trkpt>
      <trkpt lat="44.29326" lon="5.45515">
        <ele>699.1</ele>
        <time>2014-05-17T11:27:29Z</time>
      </trkpt>
      <trkpt lat="44.2937" lon="5.45535">
        <ele>701.9</ele>
        <time>2014-05-17T11:27:36Z</time>
      </trkpt>
      <trkpt lat="44.29367" lon="5.4556">
        <ele>701.8</ele>
        <time>2014-05-17T11:27:56Z</time>
      </trkpt>
      <trkpt lat="44.29321" lon="5.4558">
        <ele>701.3</ele>
        <time>2014-05-17T11:28:21Z</time>
      </trkpt>
      <trkpt lat="44.29284" lon="5.45625">
        <ele>705</ele>
        <time>2014-05-17T11:28:41Z</time>
      </trkpt>
      <trkpt lat="44.29272" lon="5.45688">
        <ele>709.1</ele>
        <time>2014-05-17T11:28:55Z</time>
      </trkpt>
      <trkpt lat="44.29257" lon="5.45743">
        <ele>714.5</ele>
        <time>2014-05-17T11:29:13Z</time>
      </trkpt>
      <trkpt lat="44.29272" lon="5.45804">
        <ele>722.2</ele>
        <time>2014-05-17T11:29:34Z</time>
      </trkpt>
      <trkpt lat="44.29273" lon="5.45867">
        <ele>726.8</ele>
        <time>2014-05-17T11:30:08Z</time>
      </trkpt>
      <trkpt lat="44.29279" lon="5.45931">
        <ele>731.1</ele>
        <time>2014-05-17T11:30:33Z</time>
      </trkpt>
      <trkpt lat="44.29272" lon="5.45997">
        <ele>733.6</ele>
        <time>2014-05-17T11:30:56Z</time>
      </trkpt>
      <trkpt lat="44.29282" lon="5.4606">
        <ele>733.7</ele>
        <time>2014-05-17T11:31:21Z</time>
      </trkpt>
      <trkpt lat="44.29305" lon="5.46116">
        <ele>738.9</ele>
        <time>2014-05-17T11:31:48Z</time>
      </trkpt>
      <trkpt lat="44.29315" lon="5.46189">
        <ele>742.9</ele>
        <time>2014-05-17T11:32:18Z</time>
      </trkpt>
      <trkpt lat="44.29313" lon="5.46258">
        <ele>745</ele>
        <time>2014-05-17T11:32:42Z</time>
      </trkpt>
      <trkpt lat="44.2933" lon="5.46327">
        <ele>750.1</ele>
        <time>2014-05-17T11:33:11Z</time>
      </trkpt>
      <trkpt lat="44.29324" lon="5.46389">
        <ele>749.7</ele>
        <time>2014-05-17T11:33:37Z</time>
      </trkpt>
      <trkpt lat="44.2934" lon="5.46457">
        <ele>754</ele>
        <time>2014-05-17T11:33:52Z</time>
      </trkpt>
      <trkpt lat="44.29342" lon="5.46524">
        <ele>755.8</ele>
        <time>2014-05-17T11:34:04Z</time>
      </trkpt>
      <trkpt lat="44.29346" lon="5.46596">
        <ele>761.6</ele>
        <time>2014-05-17T11:34:22Z</time>
      </trkpt>
      <trkpt lat="44.29339" lon="5.4667">
        <ele>766.3</ele>
        <time>2014-05-17T11:34:41Z</time>
      </trkpt>
      <trkpt lat="44.2933" lon="5.46738">
        <ele>761.5</ele>
        <time>2014-05-17T11:35:00Z</time>
      </trkpt>
      <trkpt lat="44.29359" lon="5.46789">
        <ele>760.2</ele>
        <time>2014-05-17T11:35:13Z</time>
      </trkpt>
      <trkpt lat="44.29405" lon="5.46808">
        <ele>766.8</ele>
        <time>2014-05-17T11:35:31Z</time>
      </trkpt>
      <trkpt lat="44.29401" lon="5.4683">
        <ele>762.8</ele>
        <time>2014-05-17T11:35:55Z</time>
      </trkpt>
      <trkpt lat="44.29367" lon="5.46878">
        <ele>763.4</ele>
        <time>2014-05-17T11:36:14Z</time>
      </trkpt>
      <trkpt lat="44.29325" lon="5.46908">
        <ele>765.1</ele>
        <time>2014-05-17T11:36:33Z</time>
      </trkpt>
      <trkpt lat="44.29276" lon="5.4693">
        <ele>766.3</ele>
        <time>2014-05-17T11:36:51Z</time>
      </trkpt>
      <trkpt lat="44.29232" lon="5.46958">
        <ele>770.2</ele>
        <time>2014-05-17T11:37:07Z</time>
      </trkpt>
      <trkpt lat="44.29183" lon="5.46974">
        <ele>774.7</ele>
        <time>2014-05-17T11:37:27Z</time>
      </trkpt>
      <trkpt lat="44.29158" lon="5.46916">
        <ele>771.4</ele>
        <time>2014-05-17T11:37:46Z</time>
      </trkpt>
      <trkpt lat="44.29153" lon="5.46932">
        <ele>775.9</ele>
        <time>2014-05-17T11:38:48Z</time>
      </trkpt>
      <trkpt lat="44.29176" lon="5.46991">
        <ele>779.4</ele>
        <time>2014-05-17T11:39:36Z</time>
      </trkpt>
      <trkpt lat="44.29208" lon="5.47041">
        <ele>786.2</ele>
        <time>2014-05-17T11:39:52Z</time>
      </trkpt>
      <trkpt lat="44.2926" lon="5.47048">
        <ele>786</ele>
        <time>2014-05-17T11:40:14Z</time>
      </trkpt>
      <trkpt lat="44.2931" lon="5.47021">
        <ele>784.2</ele>
        <time>2014-05-17T11:40:43Z</time>
      </trkpt>
      <trkpt lat="44.29361" lon="5.47022">
        <ele>790.7</ele>
        <time>2014-05-17T11:41:17Z</time>
      </trkpt>
      <trkpt lat="44.29402" lon="5.47037">
        <ele>797.9</ele>
        <time>2014-05-17T11:41:47Z</time>
      </trkpt>
      <trkpt lat="44.29448" lon="5.47058">
        <ele>805.8</ele>
        <time>2014-05-17T11:42:13Z</time>
      </trkpt>
      <trkpt lat="44.29495" lon="5.47044">
        <ele>809.7</ele>
        <time>2014-05-17T11:42:41Z</time>
      </trkpt>
      <trkpt lat="44.29541" lon="5.47031">
        <ele>810.1</ele>
        <time>2014-05-17T11:43:14Z</time>
      </trkpt>
      <trkpt lat="44.29586" lon="5.47061">
        <ele>818.3</ele>
        <time>2014-05-17T11:43:43Z</time>
      </trkpt>
      <trkpt lat="44.2963" lon="5.47081">
        <ele>821</ele>
        <time>2014-05-17T11:44:08Z</time>
      </trkpt>
      <trkpt lat="44.29675" lon="5.47103">
        <ele>823.1</ele>
        <time>2014-05-17T11:44:32Z</time>
      </trkpt>
      <trkpt lat="44.2972" lon="5.47116">
        <ele>822</ele>
        <time>2014-05-17T11:44:57Z</time>
      </trkpt>
      <trkpt lat="44.29764" lon="5.4714">
        <ele>822.9</ele>
        <time>2014-05-17T11:45:20Z</time>
      </trkpt>
      <trkpt lat="44.29807" lon="5.47167">
        <ele>824.6</ele>
        <time>2014-05-17T11:45:43Z</time>
      </trkpt>
      <trkpt lat="44.29849" lon="5.472">
        <ele>828.1</ele>
        <time>2014-05-17T11:46:07Z</time>
      </trkpt>
      <trkpt lat="44.29892" lon="5.47227">
        <ele>830.4</ele>
        <time>2014-05-17T11:46:34Z</time>
      </trkpt>
      <trkpt lat="44.29936" lon="5.47258">
        <ele>836.7</ele>
        <time>2014-05-17T11:46:57Z</time>
      </trkpt>
      <trkpt lat="44.29977" lon="5.4724">
        <ele>832.8</ele>
        <time>2014-05-17T11:47:09Z</time>
      </trkpt>
      <trkpt lat="44.30019" lon="5.47229">
        <ele>829</ele>
        <time>2014-05-17T11:47:33Z</time>
      </trkpt>
      <trkpt lat="44.30046" lon="5.4728">
        <ele>839.6</ele>
        <time>2014-05-17T11:48:00Z</time>
      </trkpt>
      <trkpt lat="44.30081" lon="5.47284">
        <ele>845.2</ele>
        <time>2014-05-17T11:48:29Z</time>
      </trkpt>
      <trkpt lat="44.3012" lon="5.47253">
        <ele>842.4</ele>
        <time>2014-05-17T11:48:54Z</time>
      </trkpt>
      <trkpt lat="44.30167" lon="5.47266">
        <ele>848.1</ele>
        <time>2014-05-17T11:49:16Z</time>
      </trkpt>
      <trkpt lat="44.30204" lon="5.47288">
        <ele>854.7</ele>
        <time>2014-05-17T11:50:59Z</time>
      </trkpt>
      <trkpt lat="44.30249" lon="5.47303">
        <ele>858.2</ele>
        <time>2014-05-17T11:51:20Z</time>
      </trkpt>
      <trkpt lat="44.30295" lon="5.47314">
        <ele>860.1</ele>
        <time>2014-05-17T11:51:42Z</time>
      </trkpt>
      <trkpt lat="44.30347" lon="5.47324">
        <ele>859.8</ele>
        <time>2014-05-17T11:52:16Z</time>
      </trkpt>
      <trkpt lat="44.30395" lon="5.47364">
        <ele>867.2</ele>
        <time>2014-05-17T11:52:47Z</time>
      </trkpt>
      <trkpt lat="44.3044" lon="5.47412">
        <ele>866.5</ele>
        <time>2014-05-17T11:53:20Z</time>
      </trkpt>
      <trkpt lat="44.30421" lon="5.47483">
        <ele>887.1</ele>
        <time>2014-05-17T11:53:55Z</time>
      </trkpt>
      <trkpt lat="44.30468" lon="5.47463">
        <ele>872.9</ele>
        <time>2014-05-17T11:54:21Z</time>
      </trkpt>
      <trkpt lat="44.30507" lon="5.47497">
        <ele>876.5</ele>
        <time>2014-05-17T11:54:44Z</time>
      </trkpt>
      <trkpt lat="44.30542" lon="5.47549">
        <ele>882.2</ele>
        <time>2014-05-17T11:55:15Z</time>
      </trkpt>
      <trkpt lat="44.30572" lon="5.47601">
        <ele>887.3</ele>
        <time>2014-05-17T11:55:45Z</time>
      </trkpt>
      <trkpt lat="44.30587" lon="5.47664">
        <ele>898.8</ele>
        <time>2014-05-17T11:56:15Z</time>
      </trkpt>
      <trkpt lat="44.30608" lon="5.4772">
        <ele>902.7</ele>
        <time>2014-05-17T11:57:29Z</time>
      </trkpt>
      <trkpt lat="44.30628" lon="5.47778">
        <ele>905.9</ele>
        <time>2014-05-17T11:57:55Z</time>
      </trkpt>
      <trkpt lat="44.30648" lon="5.47838">
        <ele>909.5</ele>
        <time>2014-05-17T11:58:26Z</time>
      </trkpt>
      <trkpt lat="44.30649" lon="5.4791">
        <ele>917.4</ele>
        <time>2014-05-17T11:58:51Z</time>
      </trkpt>
      <trkpt lat="44.30661" lon="5.47974">
        <ele>920.9</ele>
        <time>2014-05-17T11:59:12Z</time>
      </trkpt>
      <trkpt lat="44.3068" lon="5.48031">
        <ele>920.1</ele>
        <time>2014-05-17T12:01:08Z</time>
      </trkpt>
      <trkpt lat="44.30692" lon="5.48095">
        <ele>921.7</ele>
        <time>2014-05-17T12:01:34Z</time>
      </trkpt>
      <trkpt lat="44.30699" lon="5.48164">
        <ele>924.2</ele>
        <time>2014-05-17T12:01:59Z</time>
      </trkpt>
      <trkpt lat="44.30725" lon="5.48226">
        <ele>928.6</ele>
        <time>2014-05-17T12:02:26Z</time>
      </trkpt>
      <trkpt lat="44.30748" lon="5.48282">
        <ele>936.3</ele>
        <time>2014-05-17T12:03:47Z</time>
      </trkpt>
      <trkpt lat="44.30776" lon="5.48345">
        <ele>942.7</ele>
        <time>2014-05-17T12:04:15Z</time>
      </trkpt>
      <trkpt lat="44.30807" lon="5.48396">
        <ele>946</ele>
        <time>2014-05-17T12:04:41Z</time>
      </trkpt>
      <trkpt lat="44.30806" lon="5.48356">
        <ele>952.9</ele>
        <time>2014-05-17T12:05:08Z</time>
      </trkpt>
      <trkpt lat="44.308" lon="5.48292">
        <ele>953.5</ele>
        <time>2014-05-17T12:05:39Z</time>
      </trkpt>
      <trkpt lat="44.30834" lon="5.48237">
        <ele>959.2</ele>
        <time>2014-05-17T12:06:14Z</time>
      </trkpt>
      <trkpt lat="44.30864" lon="5.48181">
        <ele>970.2</ele>
        <time>2014-05-17T12:06:47Z</time>
      </trkpt>
      <trkpt lat="44.30892" lon="5.4812">
        <ele>979.3</ele>
        <time>2014-05-17T12:07:21Z</time>
      </trkpt>
      <trkpt lat="44.30919" lon="5.48059">
        <ele>985.6</ele>
        <time>2014-05-17T12:08:11Z</time>
      </trkpt>
      <trkpt lat="44.30933" lon="5.47989">
        <ele>983.5</ele>
        <time>2014-05-17T12:08:41Z</time>
      </trkpt>
      <trkpt lat="44.30969" lon="5.4794">
        <ele>988.5</ele>
        <time>2014-05-17T12:09:11Z</time>
      </trkpt>
      <trkpt lat="44.31012" lon="5.4792">
        <ele>998.6</ele>
        <time>2014-05-17T12:10:12Z</time>
      </trkpt>
      <trkpt lat="44.31048" lon="5.47879">
        <ele>1000.8</ele>
        <time>2014-05-17T12:10:35Z</time>
      </trkpt>
      <trkpt lat="44.31032" lon="5.47939">
        <ele>1010</ele>
        <time>2014-05-17T12:12:32Z</time>
      </trkpt>
      <trkpt lat="44.31016" lon="5.48008">
        <ele>1016.8</ele>
        <time>2014-05-17T12:17:27Z</time>
      </trkpt>
      <trkpt lat="44.30993" lon="5.4807">
        <ele>1019.1</ele>
        <time>2014-05-17T12:17:56Z</time>
      </trkpt>
      <trkpt lat="44.31028" lon="5.48039">
        <ele>1025.8</ele>
        <time>2014-05-17T12:18:25Z</time>
      </trkpt>
      <trkpt lat="44.31064" lon="5.47987">
        <ele>1030.3</ele>
        <time>2014-05-17T12:18:55Z</time>
      </trkpt>
      <trkpt lat="44.31097" lon="5.47931">
        <ele>1029.5</ele>
        <time>2014-05-17T12:19:26Z</time>
      </trkpt>
      <trkpt lat="44.3111" lon="5.47926">
        <ele>1032.2</ele>
        <time>2014-05-17T12:19:55Z</time>
      </trkpt>
      <trkpt lat="44.31097" lon="5.4799">
        <ele>1043</ele>
        <time>2014-05-17T12:20:24Z</time>
      </trkpt>
      <trkpt lat="44.3108" lon="5.48055">
        <ele>1045.8</ele>
        <time>2014-05-17T12:20:51Z</time>
      </trkpt>
      <trkpt lat="44.31067" lon="5.48126">
        <ele>1055.1</ele>
        <time>2014-05-17T12:21:19Z</time>
      </trkpt>
      <trkpt lat="44.31046" lon="5.48187">
        <ele>1060.2</ele>
        <time>2014-05-17T12:21:46Z</time>
      </trkpt>
      <trkpt lat="44.31046" lon="5.48256">
        <ele>1067</ele>
        <time>2014-05-17T12:22:14Z</time>
      </trkpt>
      <trkpt lat="44.31056" lon="5.48321">
        <ele>1071.6</ele>
        <time>2014-05-17T12:22:42Z</time>
      </trkpt>
      <trkpt lat="44.31076" lon="5.4838">
        <ele>1073.3</ele>
        <time>2014-05-17T12:27:25Z</time>
      </trkpt>
      <trkpt lat="44.31104" lon="5.48436">
        <ele>1076.5</ele>
        <time>2014-05-17T12:28:40Z</time>
      </trkpt>
      <trkpt lat="44.31146" lon="5.48474">
        <ele>1081.2</ele>
        <time>2014-05-17T12:29:38Z</time>
      </trkpt>
      <trkpt lat="44.31192" lon="5.48502">
        <ele>1086.7</ele>
        <time>2014-05-17T12:30:13Z</time>
      </trkpt>
      <trkpt lat="44.31221" lon="5.48555">
        <ele>1091.5</ele>
        <time>2014-05-17T12:30:45Z</time>
      </trkpt>
      <trkpt lat="44.31236" lon="5.48632">
        <ele>1100.9</ele>
        <time>2014-05-17T12:31:27Z</time>
      </trkpt>
      <trkpt lat="44.31215" lon="5.48695">
        <ele>1100.7</ele>
        <time>2014-05-17T12:31:56Z</time>
      </trkpt>
      <trkpt lat="44.31189" lon="5.48756">
        <ele>1102</ele>
        <time>2014-05-17T12:32:23Z</time>
      </trkpt>
      <trkpt lat="44.31176" lon="5.48789">
        <ele>1104.3</ele>
        <time>2014-05-17T12:36:46Z</time>
      </trkpt>
      <trkpt lat="44.31218" lon="5.48747">
        <ele>1109.3</ele>
        <time>2014-05-17T12:37:16Z</time>
      </trkpt>
      <trkpt lat="44.31264" lon="5.48709">
        <ele>1117.8</ele>
        <time>2014-05-17T12:37:55Z</time>
      </trkpt>
      <trkpt lat="44.31299" lon="5.48678">
        <ele>1126.1</ele>
        <time>2014-05-17T12:38:34Z</time>
      </trkpt>
      <trkpt lat="44.31301" lon="5.48754">
        <ele>1136.1</ele>
        <time>2014-05-17T12:39:16Z</time>
      </trkpt>
      <trkpt lat="44.313" lon="5.48846">
        <ele>1147.6</ele>
        <time>2014-05-17T12:40:07Z</time>
      </trkpt>
      <trkpt lat="44.31289" lon="5.48944">
        <ele>1156.2</ele>
        <time>2014-05-17T12:41:13Z</time>
      </trkpt>
      <trkpt lat="44.31291" lon="5.49037">
        <ele>1162.6</ele>
        <time>2014-05-17T12:43:14Z</time>
      </trkpt>
      <trkpt lat="44.31288" lon="5.49137">
        <ele>1169.6</ele>
        <time>2014-05-17T12:44:03Z</time>
      </trkpt>
      <trkpt lat="44.31287" lon="5.49215">
        <ele>1177</ele>
        <time>2014-05-17T12:46:22Z</time>
      </trkpt>
      <trkpt lat="44.31284" lon="5.49291">
        <ele>1184.1</ele>
        <time>2014-05-17T12:47:25Z</time>
      </trkpt>
      <trkpt lat="44.31276" lon="5.49366">
        <ele>1190</ele>
        <time>2014-05-17T12:48:50Z</time>
      </trkpt>
      <trkpt lat="44.31274" lon="5.49443">
        <ele>1199.3</ele>
        <time>2014-05-17T12:50:26Z</time>
      </trkpt>
      <trkpt lat="44.31256" lon="5.49524">
        <ele>1204.1</ele>
        <time>2014-05-17T12:51:07Z</time>
      </trkpt>
      <trkpt lat="44.31238" lon="5.49602">
        <ele>1205</ele>
        <time>2014-05-17T12:51:53Z</time>
      </trkpt>
      <trkpt lat="44.31222" lon="5.49679">
        <ele>1206.8</ele>
        <time>2014-05-17T12:52:33Z</time>
      </trkpt>
      <trkpt lat="44.31201" lon="5.49754">
        <ele>1221.7</ele>
        <time>2014-05-17T12:53:25Z</time>
      </trkpt>
      <trkpt lat="44.31181" lon="5.49825">
        <ele>1235.8</ele>
        <time>2014-05-17T12:54:36Z</time>
      </trkpt>
      <trkpt lat="44.31153" lon="5.49894">
        <ele>1246.7</ele>
        <time>2014-05-17T12:56:09Z</time>
      </trkpt>
      <trkpt lat="44.31133" lon="5.49955">
        <ele>1259.2</ele>
        <time>2014-05-17T12:57:11Z</time>
      </trkpt>
      <trkpt lat="44.31109" lon="5.50013">
        <ele>1268.4</ele>
        <time>2014-05-17T12:58:17Z</time>
      </trkpt>
      <trkpt lat="44.31119" lon="5.50021">
        <ele>1274.6</ele>
        <time>2014-05-17T13:01:49Z</time>
      </trkpt>
      <trkpt lat="44.31104" lon="5.5007">
        <ele>1284.4</ele>
        <time>2014-05-17T13:02:45Z</time>
      </trkpt>
      <trkpt lat="44.31085" lon="5.50154">
        <ele>1299.5</ele>
        <time>2014-05-17T13:03:30Z</time>
      </trkpt>
      <trkpt lat="44.31058" lon="5.5023">
        <ele>1306.5</ele>
        <time>2014-05-17T13:04:27Z</time>
      </trkpt>
      <trkpt lat="44.3103" lon="5.50312">
        <ele>1314.8</ele>
        <time>2014-05-17T13:05:14Z</time>
      </trkpt>
      <trkpt lat="44.31013" lon="5.50385">
        <ele>1326.6</ele>
        <time>2014-05-17T13:06:43Z</time>
      </trkpt>
      <trkpt lat="44.31005" lon="5.50457">
        <ele>1338</ele>
        <time>2014-05-17T13:07:19Z</time>
      </trkpt>
      <trkpt lat="44.31021" lon="5.50515">
        <ele>1342.1</ele>
        <time>2014-05-17T13:09:53Z</time>
      </trkpt>
      <trkpt lat="44.31003" lon="5.50467">
        <ele>1339.4</ele>
        <time>2014-05-17T13:19:45Z</time>
      </trkpt>
      <trkpt lat="44.3101" lon="5.50398">
        <ele>1328.4</ele>
        <time>2014-05-17T13:19:57Z</time>
      </trkpt>
      <trkpt lat="44.31024" lon="5.50331">
        <ele>1317.5</ele>
        <time>2014-05-17T13:20:13Z</time>
      </trkpt>
      <trkpt lat="44.31045" lon="5.50266">
        <ele>1309.3</ele>
        <time>2014-05-17T13:20:25Z</time>
      </trkpt>
      <trkpt lat="44.31063" lon="5.50205">
        <ele>1302.4</ele>
        <time>2014-05-17T13:20:36Z</time>
      </trkpt>
      <trkpt lat="44.31086" lon="5.50145">
        <ele>1297.7</ele>
        <time>2014-05-17T13:20:48Z</time>
      </trkpt>
      <trkpt lat="44.311" lon="5.50073">
        <ele>1283.8</ele>
        <time>2014-05-17T13:20:55Z</time>
      </trkpt>
      <trkpt lat="44.3113" lon="5.50011">
        <ele>1275.6</ele>
        <time>2014-05-17T13:21:02Z</time>
      </trkpt>
      <trkpt lat="44.31165" lon="5.49969">
        <ele>1276.2</ele>
        <time>2014-05-17T13:21:09Z</time>
      </trkpt>
      <trkpt lat="44.31197" lon="5.49923">
        <ele>1272.8</ele>
        <time>2014-05-17T13:21:16Z</time>
      </trkpt>
      <trkpt lat="44.31237" lon="5.49884">
        <ele>1275.2</ele>
        <time>2014-05-17T13:21:37Z</time>
      </trkpt>
      <trkpt lat="44.31289" lon="5.4985">
        <ele>1279.7</ele>
        <time>2014-05-17T13:22:07Z</time>
      </trkpt>
      <trkpt lat="44.3132" lon="5.49794">
        <ele>1281.8</ele>
        <time>2014-05-17T13:23:05Z</time>
      </trkpt>
      <trkpt lat="44.31354" lon="5.49735">
        <ele>1287.2</ele>
        <time>2014-05-17T13:24:20Z</time>
      </trkpt>
      <trkpt lat="44.31391" lon="5.49683">
        <ele>1299.5</ele>
        <time>2014-05-17T13:26:17Z</time>
      </trkpt>
      <trkpt lat="44.31406" lon="5.49619">
        <ele>1306.1</ele>
        <time>2014-05-17T13:29:33Z</time>
      </trkpt>
      <trkpt lat="44.31422" lon="5.4955">
        <ele>1307.6</ele>
        <time>2014-05-17T13:29:53Z</time>
      </trkpt>
      <trkpt lat="44.31445" lon="5.49488">
        <ele>1311.6</ele>
        <time>2014-05-17T13:30:27Z</time>
      </trkpt>
      <trkpt lat="44.31474" lon="5.49428">
        <ele>1318.4</ele>
        <time>2014-05-17T13:31:26Z</time>
      </trkpt>
      <trkpt lat="44.31494" lon="5.49365">
        <ele>1318.1</ele>
        <time>2014-05-17T13:31:51Z</time>
      </trkpt>
      <trkpt lat="44.31512" lon="5.49302">
        <ele>1317.9</ele>
        <time>2014-05-17T13:32:12Z</time>
      </trkpt>
      <trkpt lat="44.31533" lon="5.4924">
        <ele>1319.7</ele>
        <time>2014-05-17T13:32:41Z</time>
      </trkpt>
      <trkpt lat="44.31553" lon="5.49176">
        <ele>1319.5</ele>
        <time>2014-05-17T13:33:08Z</time>
      </trkpt>
      <trkpt lat="44.31569" lon="5.49112">
        <ele>1315.9</ele>
        <time>2014-05-17T13:33:33Z</time>
      </trkpt>
      <trkpt lat="44.3159" lon="5.49053">
        <ele>1316</ele>
        <time>2014-05-17T13:37:22Z</time>
      </trkpt>
      <trkpt lat="44.31611" lon="5.48991">
        <ele>1317.4</ele>
        <time>2014-05-17T13:37:41Z</time>
      </trkpt>
      <trkpt lat="44.31618" lon="5.48929">
        <ele>1315.7</ele>
        <time>2014-05-17T13:38:01Z</time>
      </trkpt>
      <trkpt lat="44.31638" lon="5.4887">
        <ele>1321.1</ele>
        <time>2014-05-17T13:38:33Z</time>
      </trkpt>
      <trkpt lat="44.31667" lon="5.48815">
        <ele>1327.4</ele>
        <time>2014-05-17T13:39:16Z</time>
      </trkpt>
      <trkpt lat="44.31686" lon="5.48751">
        <ele>1328.2</ele>
        <time>2014-05-17T13:39:47Z</time>
      </trkpt>
      <trkpt lat="44.31705" lon="5.48699">
        <ele>1325.8</ele>
        <time>2014-05-17T13:40:32Z</time>
      </trkpt>
      <trkpt lat="44.31681" lon="5.48657">
        <ele>1320.5</ele>
        <time>2014-05-17T13:41:25Z</time>
      </trkpt>
      <trkpt lat="44.31688" lon="5.48592">
        <ele>1319.1</ele>
        <time>2014-05-17T13:41:48Z</time>
      </trkpt>
      <trkpt lat="44.31696" lon="5.48526">
        <ele>1317.5</ele>
        <time>2014-05-17T13:42:10Z</time>
      </trkpt>
      <trkpt lat="44.31697" lon="5.48461">
        <ele>1309.3</ele>
        <time>2014-05-17T13:42:36Z</time>
      </trkpt>
      <trkpt lat="44.31696" lon="5.484">
        <ele>1300.7</ele>
        <time>2014-05-17T13:44:01Z</time>
      </trkpt>
      <trkpt lat="44.3171" lon="5.48332">
        <ele>1302.8</ele>
        <time>2014-05-17T13:44:19Z</time>
      </trkpt>
      <trkpt lat="44.3173" lon="5.4827">
        <ele>1305.8</ele>
        <time>2014-05-17T13:44:40Z</time>
      </trkpt>
      <trkpt lat="44.31749" lon="5.48204">
        <ele>1303.3</ele>
        <time>2014-05-17T13:44:59Z</time>
      </trkpt>
      <trkpt lat="44.31773" lon="5.48144">
        <ele>1300.4</ele>
        <time>2014-05-17T13:45:18Z</time>
      </trkpt>
      <trkpt lat="44.31795" lon="5.48083">
        <ele>1295.6</ele>
        <time>2014-05-17T13:47:37Z</time>
      </trkpt>
      <trkpt lat="44.3182" lon="5.48031">
        <ele>1290.6</ele>
        <time>2014-05-17T13:47:54Z</time>
      </trkpt>
      <trkpt lat="44.31837" lon="5.4797">
        <ele>1289.1</ele>
        <time>2014-05-17T13:50:21Z</time>
      </trkpt>
      <trkpt lat="44.31862" lon="5.47914">
        <ele>1289.3</ele>
        <time>2014-05-17T13:50:35Z</time>
      </trkpt>
      <trkpt lat="44.31884" lon="5.47854">
        <ele>1283.9</ele>
        <time>2014-05-17T13:50:47Z</time>
      </trkpt>
      <trkpt lat="44.31903" lon="5.47795">
        <ele>1277.6</ele>
        <time>2014-05-17T13:50:58Z</time>
      </trkpt>
      <trkpt lat="44.31918" lon="5.47731">
        <ele>1276</ele>
        <time>2014-05-17T13:51:09Z</time>
      </trkpt>
      <trkpt lat="44.31941" lon="5.47676">
        <ele>1271.1</ele>
        <time>2014-05-17T13:51:18Z</time>
      </trkpt>
      <trkpt lat="44.31962" lon="5.47624">
        <ele>1262.5</ele>
        <time>2014-05-17T13:51:32Z</time>
      </trkpt>
      <trkpt lat="44.31959" lon="5.47561">
        <ele>1271</ele>
        <time>2014-05-17T13:51:44Z</time>
      </trkpt>
      <trkpt lat="44.31957" lon="5.47491">
        <ele>1268.5</ele>
        <time>2014-05-17T13:51:55Z</time>
      </trkpt>
      <trkpt lat="44.31951" lon="5.47425">
        <ele>1267.1</ele>
        <time>2014-05-17T13:52:03Z</time>
      </trkpt>
      <trkpt lat="44.31952" lon="5.4736">
        <ele>1264.7</ele>
        <time>2014-05-17T13:52:13Z</time>
      </trkpt>
      <trkpt lat="44.31947" lon="5.47299">
        <ele>1267.3</ele>
        <time>2014-05-17T13:52:33Z</time>
      </trkpt>
      <trkpt lat="44.31954" lon="5.4724">
        <ele>1269.5</ele>
        <time>2014-05-17T13:53:56Z</time>
      </trkpt>
      <trkpt lat="44.31964" lon="5.47176">
        <ele>1272.5</ele>
        <time>2014-05-17T13:54:20Z</time>
      </trkpt>
      <trkpt lat="44.31974" lon="5.47113">
        <ele>1274.5</ele>
        <time>2014-05-17T13:54:47Z</time>
      </trkpt>
      <trkpt lat="44.31981" lon="5.47051">
        <ele>1271.1</ele>
        <time>2014-05-17T13:55:12Z</time>
      </trkpt>
      <trkpt lat="44.31995" lon="5.46991">
        <ele>1275.9</ele>
        <time>2014-05-17T13:55:41Z</time>
      </trkpt>
      <trkpt lat="44.32008" lon="5.46933">
        <ele>1277.6</ele>
        <time>2014-05-17T13:57:02Z</time>
      </trkpt>
      <trkpt lat="44.32024" lon="5.46873">
        <ele>1278</ele>
        <time>2014-05-17T13:57:27Z</time>
      </trkpt>
      <trkpt lat="44.32039" lon="5.4681">
        <ele>1281.4</ele>
        <time>2014-05-17T13:57:51Z</time>
      </trkpt>
      <trkpt lat="44.32051" lon="5.4675">
        <ele>1291.1</ele>
        <time>2014-05-17T13:58:16Z</time>
      </trkpt>
      <trkpt lat="44.32067" lon="5.4669">
        <ele>1290.7</ele>
        <time>2014-05-17T13:58:42Z</time>
      </trkpt>
      <trkpt lat="44.32078" lon="5.46626">
        <ele>1301.8</ele>
        <time>2014-05-17T13:59:52Z</time>
      </trkpt>
      <trkpt lat="44.32089" lon="5.46564">
        <ele>1313.3</ele>
        <time>2014-05-17T14:01:02Z</time>
      </trkpt>
      <trkpt lat="44.32096" lon="5.46498">
        <ele>1323.8</ele>
        <time>2014-05-17T14:01:59Z</time>
      </trkpt>
      <trkpt lat="44.32121" lon="5.46455">
        <ele>1329.3</ele>
        <time>2014-05-17T14:03:10Z</time>
      </trkpt>
      <trkpt lat="44.32145" lon="5.46405">
        <ele>1333.8</ele>
        <time>2014-05-17T14:04:15Z</time>
      </trkpt>
      <trkpt lat="44.32145" lon="5.46346">
        <ele>1339.2</ele>
        <time>2014-05-17T14:18:19Z</time>
      </trkpt>
      <trkpt lat="44.32126" lon="5.46281">
        <ele>1336.1</ele>
        <time>2014-05-17T14:18:29Z</time>
      </trkpt>
      <trkpt lat="44.32111" lon="5.4622">
        <ele>1331.5</ele>
        <time>2014-05-17T14:18:41Z</time>
      </trkpt>
      <trkpt lat="44.32094" lon="5.46157">
        <ele>1322.1</ele>
        <time>2014-05-17T14:18:58Z</time>
      </trkpt>
      <trkpt lat="44.32091" lon="5.46094">
        <ele>1319.6</ele>
        <time>2014-05-17T14:19:40Z</time>
      </trkpt>
      <trkpt lat="44.32085" lon="5.46027">
        <ele>1318.1</ele>
        <time>2014-05-17T14:20:00Z</time>
      </trkpt>
      <trkpt lat="44.3209" lon="5.45959">
        <ele>1316.7</ele>
        <time>2014-05-17T14:20:18Z</time>
      </trkpt>
      <trkpt lat="44.32083" lon="5.45892">
        <ele>1315</ele>
        <time>2014-05-17T14:20:34Z</time>
      </trkpt>
      <trkpt lat="44.32078" lon="5.45828">
        <ele>1313.2</ele>
        <time>2014-05-17T14:20:48Z</time>
      </trkpt>
      <trkpt lat="44.32067" lon="5.45766">
        <ele>1308.7</ele>
        <time>2014-05-17T14:21:07Z</time>
      </trkpt>
      <trkpt lat="44.32048" lon="5.45708">
        <ele>1300.5</ele>
        <time>2014-05-17T14:21:25Z</time>
      </trkpt>
      <trkpt lat="44.32059" lon="5.45646">
        <ele>1293.8</ele>
        <time>2014-05-17T14:21:56Z</time>
      </trkpt>
      <trkpt lat="44.32051" lon="5.45582">
        <ele>1292.2</ele>
        <time>2014-05-17T14:22:14Z</time>
      </trkpt>
      <trkpt lat="44.32053" lon="5.45516">
        <ele>1294.9</ele>
        <time>2014-05-17T14:27:11Z</time>
      </trkpt>
      <trkpt lat="44.32033" lon="5.45446">
        <ele>1292.5</ele>
        <time>2014-05-17T14:28:15Z</time>
      </trkpt>
      <trkpt lat="44.32025" lon="5.45383">
        <ele>1288.1</ele>
        <time>2014-05-17T14:28:26Z</time>
      </trkpt>
      <trkpt lat="44.32016" lon="5.45313">
        <ele>1281.2</ele>
        <time>2014-05-17T14:28:39Z</time>
      </trkpt>
      <trkpt lat="44.32003" lon="5.45248">
        <ele>1275.1</ele>
        <time>2014-05-17T14:28:53Z</time>
      </trkpt>
      <trkpt lat="44.31989" lon="5.45165">
        <ele>1270.1</ele>
        <time>2014-05-17T14:29:16Z</time>
      </trkpt>
      <trkpt lat="44.31979" lon="5.4509">
        <ele>1264.1</ele>
        <time>2014-05-17T14:29:31Z</time>
      </trkpt>
      <trkpt lat="44.31968" lon="5.45024">
        <ele>1251.7</ele>
        <time>2014-05-17T14:29:42Z</time>
      </trkpt>
      <trkpt lat="44.31944" lon="5.44967">
        <ele>1250.5</ele>
        <time>2014-05-17T14:30:01Z</time>
      </trkpt>
      <trkpt lat="44.31925" lon="5.44905">
        <ele>1249.4</ele>
        <time>2014-05-17T14:30:21Z</time>
      </trkpt>
      <trkpt lat="44.31912" lon="5.44838">
        <ele>1247.4</ele>
        <time>2014-05-17T14:30:36Z</time>
      </trkpt>
      <trkpt lat="44.31911" lon="5.44769">
        <ele>1243.7</ele>
        <time>2014-05-17T14:30:44Z</time>
      </trkpt>
      <trkpt lat="44.31902" lon="5.44693">
        <ele>1243.1</ele>
        <time>2014-05-17T14:32:31Z</time>
      </trkpt>
      <trkpt lat="44.3193" lon="5.44642">
        <ele>1236.1</ele>
        <time>2014-05-17T14:32:50Z</time>
      </trkpt>
      <trkpt lat="44.31908" lon="5.44575">
        <ele>1236.8</ele>
        <time>2014-05-17T14:33:04Z</time>
      </trkpt>
      <trkpt lat="44.3189" lon="5.44505">
        <ele>1234.2</ele>
        <time>2014-05-17T14:33:19Z</time>
      </trkpt>
      <trkpt lat="44.31877" lon="5.4444">
        <ele>1231.5</ele>
        <time>2014-05-17T14:33:28Z</time>
      </trkpt>
      <trkpt lat="44.3185" lon="5.44387">
        <ele>1231.2</ele>
        <time>2014-05-17T14:34:11Z</time>
      </trkpt>
      <trkpt lat="44.31833" lon="5.44329">
        <ele>1230.9</ele>
        <time>2014-05-17T14:34:22Z</time>
      </trkpt>
      <trkpt lat="44.31824" lon="5.44261">
        <ele>1229.4</ele>
        <time>2014-05-17T14:34:31Z</time>
      </trkpt>
      <trkpt lat="44.31828" lon="5.44194">
        <ele>1223.4</ele>
        <time>2014-05-17T14:34:41Z</time>
      </trkpt>
      <trkpt lat="44.31814" lon="5.44136">
        <ele>1223.7</ele>
        <time>2014-05-17T14:34:55Z</time>
      </trkpt>
      <trkpt lat="44.31793" lon="5.44078">
        <ele>1226.5</ele>
        <time>2014-05-17T14:35:05Z</time>
      </trkpt>
      <trkpt lat="44.31767" lon="5.44023">
        <ele>1229.9</ele>
        <time>2014-05-17T14:35:15Z</time>
      </trkpt>
      <trkpt lat="44.31746" lon="5.43966">
        <ele>1230</ele>
        <time>2014-05-17T14:37:23Z</time>
      </trkpt>
      <trkpt lat="44.31734" lon="5.43909">
        <ele>1229.4</ele>
        <time>2014-05-17T14:37:37Z</time>
      </trkpt>
      <trkpt lat="44.31705" lon="5.4386">
        <ele>1229</ele>
        <time>2014-05-17T14:38:02Z</time>
      </trkpt>
      <trkpt lat="44.31708" lon="5.43808">
        <ele>1227.6</ele>
        <time>2014-05-17T14:39:14Z</time>
      </trkpt>
      <trkpt lat="44.31742" lon="5.43769">
        <ele>1216.9</ele>
        <time>2014-05-17T14:39:37Z</time>
      </trkpt>
      <trkpt lat="44.31775" lon="5.43698">
        <ele>1195.9</ele>
        <time>2014-05-17T14:39:57Z</time>
      </trkpt>
      <trkpt lat="44.318" lon="5.43627">
        <ele>1180.4</ele>
        <time>2014-05-17T14:40:10Z</time>
      </trkpt>
      <trkpt lat="44.31854" lon="5.43578">
        <ele>1163.8</ele>
        <time>2014-05-17T14:40:35Z</time>
      </trkpt>
      <trkpt lat="44.31897" lon="5.435">
        <ele>1161.3</ele>
        <time>2014-05-17T14:41:04Z</time>
      </trkpt>
      <trkpt lat="44.31903" lon="5.43417">
        <ele>1164.8</ele>
        <time>2014-05-17T14:41:21Z</time>
      </trkpt>
      <trkpt lat="44.31922" lon="5.4334">
        <ele>1161</ele>
        <time>2014-05-17T14:41:32Z</time>
      </trkpt>
      <trkpt lat="44.31942" lon="5.43258">
        <ele>1154.8</ele>
        <time>2014-05-17T14:41:44Z</time>
      </trkpt>
      <trkpt lat="44.31947" lon="5.43177">
        <ele>1153.3</ele>
        <time>2014-05-17T14:41:58Z</time>
      </trkpt>
      <trkpt lat="44.3196" lon="5.43108">
        <ele>1150.6</ele>
        <time>2014-05-17T14:42:09Z</time>
      </trkpt>
      <trkpt lat="44.31997" lon="5.43046">
        <ele>1145.3</ele>
        <time>2014-05-17T14:42:17Z</time>
      </trkpt>
      <trkpt lat="44.32006" lon="5.42973">
        <ele>1142.7</ele>
        <time>2014-05-17T14:44:36Z</time>
      </trkpt>
      <trkpt lat="44.32008" lon="5.42903">
        <ele>1137.4</ele>
        <time>2014-05-17T14:44:45Z</time>
      </trkpt>
      <trkpt lat="44.32005" lon="5.42831">
        <ele>1131.9</ele>
        <time>2014-05-17T14:44:57Z</time>
      </trkpt>
      <trkpt lat="44.32004" lon="5.42774">
        <ele>1130</ele>
        <time>2014-05-17T14:45:07Z</time>
      </trkpt>
      <trkpt lat="44.32002" lon="5.42706">
        <ele>1124.2</ele>
        <time>2014-05-17T14:45:17Z</time>
      </trkpt>
      <trkpt lat="44.31997" lon="5.42639">
        <ele>1116.3</ele>
        <time>2014-05-17T14:45:24Z</time>
      </trkpt>
      <trkpt lat="44.32" lon="5.42574">
        <ele>1113.9</ele>
        <time>2014-05-17T14:45:30Z</time>
      </trkpt>
      <trkpt lat="44.32026" lon="5.4252">
        <ele>1113</ele>
        <time>2014-05-17T14:45:39Z</time>
      </trkpt>
      <trkpt lat="44.32059" lon="5.42479">
        <ele>1115.1</ele>
        <time>2014-05-17T14:45:49Z</time>
      </trkpt>
      <trkpt lat="44.32071" lon="5.42419">
        <ele>1116.1</ele>
        <time>2014-05-17T14:45:59Z</time>
      </trkpt>
      <trkpt lat="44.32087" lon="5.4236">
        <ele>1112.6</ele>
        <time>2014-05-17T14:46:10Z</time>
      </trkpt>
      <trkpt lat="44.32121" lon="5.42316">
        <ele>1110.8</ele>
        <time>2014-05-17T14:46:19Z</time>
      </trkpt>
      <trkpt lat="44.32111" lon="5.4227">
        <ele>1110</ele>
        <time>2014-05-17T14:46:33Z</time>
      </trkpt>
      <trkpt lat="44.32114" lon="5.42213">
        <ele>1117.6</ele>
        <time>2014-05-17T14:46:50Z</time>
      </trkpt>
      <trkpt lat="44.32113" lon="5.42147">
        <ele>1115.1</ele>
        <time>2014-05-17T14:47:01Z</time>
      </trkpt>
      <trkpt lat="44.3211" lon="5.42086">
        <ele>1112.8</ele>
        <time>2014-05-17T14:47:16Z</time>
      </trkpt>
      <trkpt lat="44.32095" lon="5.42025">
        <ele>1112.7</ele>
        <time>2014-05-17T14:47:32Z</time>
      </trkpt>
      <trkpt lat="44.3207" lon="5.41972">
        <ele>1112.1</ele>
        <time>2014-05-17T14:50:03Z</time>
      </trkpt>
      <trkpt lat="44.32045" lon="5.41916">
        <ele>1116.2</ele>
        <time>2014-05-17T14:50:17Z</time>
      </trkpt>
      <trkpt lat="44.32047" lon="5.41854">
        <ele>1115.7</ele>
        <time>2014-05-17T14:50:41Z</time>
      </trkpt>
      <trkpt lat="44.32068" lon="5.41788">
        <ele>1109.3</ele>
        <time>2014-05-17T14:50:51Z</time>
      </trkpt>
      <trkpt lat="44.32072" lon="5.41718">
        <ele>1105.5</ele>
        <time>2014-05-17T14:51:04Z</time>
      </trkpt>
      <trkpt lat="44.32076" lon="5.41649">
        <ele>1104</ele>
        <time>2014-05-17T14:51:19Z</time>
      </trkpt>
      <trkpt lat="44.32084" lon="5.41576">
        <ele>1101.8</ele>
        <time>2014-05-17T14:51:35Z</time>
      </trkpt>
      <trkpt lat="44.321" lon="5.41512">
        <ele>1092</ele>
        <time>2014-05-17T14:51:48Z</time>
      </trkpt>
      <trkpt lat="44.32084" lon="5.41423">
        <ele>1085.7</ele>
        <time>2014-05-17T14:52:10Z</time>
      </trkpt>
      <trkpt lat="44.32063" lon="5.41354">
        <ele>1088.2</ele>
        <time>2014-05-17T14:52:28Z</time>
      </trkpt>
      <trkpt lat="44.32047" lon="5.41276">
        <ele>1089.3</ele>
        <time>2014-05-17T14:52:40Z</time>
      </trkpt>
      <trkpt lat="44.32033" lon="5.41205">
        <ele>1094.3</ele>
        <time>2014-05-17T14:52:56Z</time>
      </trkpt>
      <trkpt lat="44.32031" lon="5.41134">
        <ele>1090</ele>
        <time>2014-05-17T14:53:12Z</time>
      </trkpt>
      <trkpt lat="44.32028" lon="5.4104">
        <ele>1085.8</ele>
        <time>2014-05-17T14:54:26Z</time>
      </trkpt>
      <trkpt lat="44.32024" lon="5.40964">
        <ele>1080.5</ele>
        <time>2014-05-17T14:54:57Z</time>
      </trkpt>
      <trkpt lat="44.32021" lon="5.40893">
        <ele>1073.1</ele>
        <time>2014-05-17T14:55:09Z</time>
      </trkpt>
      <trkpt lat="44.32009" lon="5.40822">
        <ele>1065.8</ele>
        <time>2014-05-17T14:55:27Z</time>
      </trkpt>
      <trkpt lat="44.32001" lon="5.40755">
        <ele>1059.2</ele>
        <time>2014-05-17T14:55:43Z</time>
      </trkpt>
      <trkpt lat="44.31995" lon="5.40685">
        <ele>1050.3</ele>
        <time>2014-05-17T14:56:01Z</time>
      </trkpt>
      <trkpt lat="44.31994" lon="5.40613">
        <ele>1043.4</ele>
        <time>2014-05-17T14:56:14Z</time>
      </trkpt>
      <trkpt lat="44.31991" lon="5.40542">
        <ele>1035.9</ele>
        <time>2014-05-17T14:56:33Z</time>
      </trkpt>
      <trkpt lat="44.31995" lon="5.40477">
        <ele>1030.2</ele>
        <time>2014-05-17T14:56:49Z</time>
      </trkpt>
      <trkpt lat="44.32006" lon="5.40424">
        <ele>1027.5</ele>
        <time>2014-05-17T14:59:03Z</time>
      </trkpt>
      <trkpt lat="44.32041" lon="5.40385">
        <ele>1015</ele>
        <time>2014-05-17T14:59:22Z</time>
      </trkpt>
      <trkpt lat="44.32067" lon="5.40325">
        <ele>994.3</ele>
        <time>2014-05-17T14:59:52Z</time>
      </trkpt>
      <trkpt lat="44.32079" lon="5.40264">
        <ele>976.6</ele>
        <time>2014-05-17T15:00:23Z</time>
      </trkpt>
      <trkpt lat="44.32097" lon="5.40207">
        <ele>954.1</ele>
        <time>2014-05-17T15:00:54Z</time>
      </trkpt>
      <trkpt lat="44.32124" lon="5.40134">
        <ele>929.5</ele>
        <time>2014-05-17T15:01:28Z</time>
      </trkpt>
      <trkpt lat="44.32154" lon="5.40058">
        <ele>907.5</ele>
        <time>2014-05-17T15:02:00Z</time>
      </trkpt>
      <trkpt lat="44.32177" lon="5.3998">
        <ele>891.6</ele>
        <time>2014-05-17T15:03:08Z</time>
      </trkpt>
      <trkpt lat="44.32204" lon="5.39909">
        <ele>869.7</ele>
        <time>2014-05-17T15:09:56Z</time>
      </trkpt>
      <trkpt lat="44.32212" lon="5.39845">
        <ele>857.2</ele>
        <time>2014-05-17T15:10:53Z</time>
      </trkpt>
      <trkpt lat="44.32229" lon="5.39767">
        <ele>838.1</ele>
        <time>2014-05-17T15:11:21Z</time>
      </trkpt>
      <trkpt lat="44.32249" lon="5.39691">
        <ele>819.5</ele>
        <time>2014-05-17T15:11:50Z</time>
      </trkpt>
      <trkpt lat="44.32252" lon="5.39616">
        <ele>805.7</ele>
        <time>2014-05-17T15:12:08Z</time>
      </trkpt>
      <trkpt lat="44.32236" lon="5.39548">
        <ele>796.2</ele>
        <time>2014-05-17T15:12:30Z</time>
      </trkpt>
      <trkpt lat="44.32252" lon="5.39505">
        <ele>789.6</ele>
        <time>2014-05-17T15:14:22Z</time>
      </trkpt>
      <trkpt lat="44.32212" lon="5.39484">
        <ele>789</ele>
        <time>2014-05-17T15:14:59Z</time>
      </trkpt>
      <trkpt lat="44.32169" lon="5.395">
        <ele>791</ele>
        <time>2014-05-17T15:15:16Z</time>
      </trkpt>
      <trkpt lat="44.32157" lon="5.39447">
        <ele>784.4</ele>
        <time>2014-05-17T15:15:27Z</time>
      </trkpt>
      <trkpt lat="44.32163" lon="5.39378">
        <ele>775.1</ele>
        <time>2014-05-17T15:15:37Z</time>
      </trkpt>
      <trkpt lat="44.32203" lon="5.39348">
        <ele>762.2</ele>
        <time>2014-05-17T15:15:48Z</time>
      </trkpt>
      <trkpt lat="44.32229" lon="5.39292">
        <ele>754.8</ele>
        <time>2014-05-17T15:15:55Z</time>
      </trkpt>
      <trkpt lat="44.32257" lon="5.39238">
        <ele>746.8</ele>
        <time>2014-05-17T15:16:02Z</time>
      </trkpt>
      <trkpt lat="44.32284" lon="5.39185">
        <ele>737.5</ele>
        <time>2014-05-17T15:16:08Z</time>
      </trkpt>
      <trkpt lat="44.32316" lon="5.39133">
        <ele>727.7</ele>
        <time>2014-05-17T15:16:15Z</time>
      </trkpt>
      <trkpt lat="44.32335" lon="5.391">
        <ele>724.3</ele>
        <time>2014-05-17T15:26:36Z</time>
      </trkpt>
      <trkpt lat="44.32296" lon="5.39107">
        <ele>729.4</ele>
        <time>2014-05-17T15:27:15Z</time>
      </trkpt>
      <trkpt lat="44.3225" lon="5.39094">
        <ele>733.3</ele>
        <time>2014-05-17T15:27:34Z</time>
      </trkpt>
      <trkpt lat="44.32219" lon="5.39044">
        <ele>735</ele>
        <time>2014-05-17T15:27:51Z</time>
      </trkpt>
      <trkpt lat="44.32209" lon="5.38978">
        <ele>736.4</ele>
        <time>2014-05-17T15:28:09Z</time>
      </trkpt>
      <trkpt lat="44.32196" lon="5.38916">
        <ele>738.6</ele>
        <time>2014-05-17T15:28:28Z</time>
      </trkpt>
      <trkpt lat="44.32167" lon="5.38866">
        <ele>742.4</ele>
        <time>2014-05-17T15:28:46Z</time>
      </trkpt>
      <trkpt lat="44.32136" lon="5.38819">
        <ele>745.2</ele>
        <time>2014-05-17T15:29:02Z</time>
      </trkpt>
      <trkpt lat="44.32109" lon="5.38767">
        <ele>749.9</ele>
        <time>2014-05-17T15:29:17Z</time>
      </trkpt>
      <trkpt lat="44.32113" lon="5.38704">
        <ele>749.2</ele>
        <time>2014-05-17T15:29:30Z</time>
      </trkpt>
      <trkpt lat="44.32114" lon="5.38638">
        <ele>749.8</ele>
        <time>2014-05-17T15:29:43Z</time>
      </trkpt>
      <trkpt lat="44.32083" lon="5.38585">
        <ele>755.4</ele>
        <time>2014-05-17T15:29:56Z</time>
      </trkpt>
      <trkpt lat="44.32057" lon="5.38531">
        <ele>757</ele>
        <time>2014-05-17T15:30:09Z</time>
      </trkpt>
      <trkpt lat="44.32025" lon="5.38483">
        <ele>760.8</ele>
        <time>2014-05-17T15:30:22Z</time>
      </trkpt>
      <trkpt lat="44.32003" lon="5.38423">
        <ele>764.5</ele>
        <time>2014-05-17T15:30:40Z</time>
      </trkpt>
      <trkpt lat="44.31979" lon="5.38367">
        <ele>764</ele>
        <time>2014-05-17T15:30:55Z</time>
      </trkpt>
      <trkpt lat="44.3194" lon="5.38344">
        <ele>766.9</ele>
        <time>2014-05-17T15:31:08Z</time>
      </trkpt>
      <trkpt lat="44.31899" lon="5.38366">
        <ele>771.2</ele>
        <time>2014-05-17T15:31:22Z</time>
      </trkpt>
      <trkpt lat="44.31854" lon="5.38377">
        <ele>774.8</ele>
        <time>2014-05-17T15:31:39Z</time>
      </trkpt>
      <trkpt lat="44.31816" lon="5.38339">
        <ele>778</ele>
        <time>2014-05-17T15:31:55Z</time>
      </trkpt>
      <trkpt lat="44.31806" lon="5.38276">
        <ele>778.9</ele>
        <time>2014-05-17T15:32:13Z</time>
      </trkpt>
      <trkpt lat="44.31805" lon="5.38212">
        <ele>780.4</ele>
        <time>2014-05-17T15:32:34Z</time>
      </trkpt>
      <trkpt lat="44.31805" lon="5.38145">
        <ele>781.9</ele>
        <time>2014-05-17T15:32:55Z</time>
      </trkpt>
      <trkpt lat="44.31802" lon="5.38081">
        <ele>782.7</ele>
        <time>2014-05-17T15:33:15Z</time>
      </trkpt>
      <trkpt lat="44.31784" lon="5.38025">
        <ele>781.8</ele>
        <time>2014-05-17T15:33:35Z</time>
      </trkpt>
      <trkpt lat="44.31748" lon="5.37986">
        <ele>786.9</ele>
        <time>2014-05-17T15:33:54Z</time>
      </trkpt>
      <trkpt lat="44.31707" lon="5.37955">
        <ele>789.6</ele>
        <time>2014-05-17T15:34:16Z</time>
      </trkpt>
      <trkpt lat="44.31691" lon="5.37895">
        <ele>792.5</ele>
        <time>2014-05-17T15:34:34Z</time>
      </trkpt>
      <trkpt lat="44.3167" lon="5.37839">
        <ele>800.7</ele>
        <time>2014-05-17T15:34:55Z</time>
      </trkpt>
      <trkpt lat="44.31682" lon="5.37776">
        <ele>802.7</ele>
        <time>2014-05-17T15:35:59Z</time>
      </trkpt>
      <trkpt lat="44.31661" lon="5.3772">
        <ele>807</ele>
        <time>2014-05-17T15:36:28Z</time>
      </trkpt>
      <trkpt lat="44.31648" lon="5.37652">
        <ele>812.7</ele>
        <time>2014-05-17T15:37:03Z</time>
      </trkpt>
      <trkpt lat="44.3164" lon="5.37619">
        <ele>816.3</ele>
        <time>2014-05-17T15:37:39Z</time>
      </trkpt>
      <trkpt lat="44.31647" lon="5.37664">
        <ele>812.1</ele>
        <time>2014-05-17T15:38:27Z</time>
      </trkpt>
      <trkpt lat="44.31629" lon="5.37713">
        <ele>817.2</ele>
        <time>2014-05-17T15:39:29Z</time>
      </trkpt>
      <trkpt lat="44.31625" lon="5.37781">
        <ele>817.3</ele>
        <time>2014-05-17T15:39:42Z</time>
      </trkpt>
      <trkpt lat="44.31615" lon="5.37847">
        <ele>816</ele>
        <time>2014-05-17T15:39:55Z</time>
      </trkpt>
      <trkpt lat="44.31597" lon="5.37898">
        <ele>811.8</ele>
        <time>2014-05-17T15:42:14Z</time>
      </trkpt>
      <trkpt lat="44.31554" lon="5.37907">
        <ele>816</ele>
        <time>2014-05-17T15:42:42Z</time>
      </trkpt>
      <trkpt lat="44.31505" lon="5.37907">
        <ele>817.2</ele>
        <time>2014-05-17T15:43:01Z</time>
      </trkpt>
      <trkpt lat="44.3146" lon="5.37911">
        <ele>817</ele>
        <time>2014-05-17T15:43:47Z</time>
      </trkpt>
      <trkpt lat="44.3146" lon="5.37965">
        <ele>800.4</ele>
        <time>2014-05-17T15:44:53Z</time>
      </trkpt>
      <trkpt lat="44.31447" lon="5.38011">
        <ele>789.7</ele>
        <time>2014-05-17T15:46:24Z</time>
      </trkpt>
      <trkpt lat="44.31401" lon="5.38035">
        <ele>786.4</ele>
        <time>2014-05-17T15:47:40Z</time>
      </trkpt>
      <trkpt lat="44.31352" lon="5.38043">
        <ele>782.2</ele>
        <time>2014-05-17T15:48:00Z</time>
      </trkpt>
      <trkpt lat="44.3131" lon="5.38049">
        <ele>778.7</ele>
        <time>2014-05-17T15:50:26Z</time>
      </trkpt>
      <trkpt lat="44.31265" lon="5.38069">
        <ele>773.3</ele>
        <time>2014-05-17T15:50:46Z</time>
      </trkpt>
      <trkpt lat="44.31228" lon="5.38074">
        <ele>770.2</ele>
        <time>2014-05-17T15:51:49Z</time>
      </trkpt>
      <trkpt lat="44.31177" lon="5.38083">
        <ele>770.2</ele>
        <time>2014-05-17T15:52:19Z</time>
      </trkpt>
      <trkpt lat="44.31132" lon="5.38055">
        <ele>770.6</ele>
        <time>2014-05-17T15:53:31Z</time>
      </trkpt>
      <trkpt lat="44.31087" lon="5.38052">
        <ele>767.8</ele>
        <time>2014-05-17T15:54:00Z</time>
      </trkpt>
      <trkpt lat="44.31052" lon="5.38059">
        <ele>765.4</ele>
        <time>2014-05-17T15:55:02Z</time>
      </trkpt>
      <trkpt lat="44.31014" lon="5.38022">
        <ele>770.9</ele>
        <time>2014-05-17T15:55:27Z</time>
      </trkpt>
      <trkpt lat="44.30973" lon="5.37985">
        <ele>776.2</ele>
        <time>2014-05-17T15:55:55Z</time>
      </trkpt>
      <trkpt lat="44.30967" lon="5.37918">
        <ele>784.6</ele>
        <time>2014-05-17T15:56:20Z</time>
      </trkpt>
      <trkpt lat="44.30938" lon="5.37868">
        <ele>783.3</ele>
        <time>2014-05-17T15:57:06Z</time>
      </trkpt>
      <trkpt lat="44.30906" lon="5.3782">
        <ele>780.7</ele>
        <time>2014-05-17T15:57:58Z</time>
      </trkpt>
      <trkpt lat="44.30866" lon="5.37785">
        <ele>773.4</ele>
        <time>2014-05-17T15:58:38Z</time>
      </trkpt>
      <trkpt lat="44.30821" lon="5.37755">
        <ele>764.5</ele>
        <time>2014-05-17T15:59:03Z</time>
      </trkpt>
      <trkpt lat="44.30778" lon="5.37725">
        <ele>755.4</ele>
        <time>2014-05-17T15:59:32Z</time>
      </trkpt>
      <trkpt lat="44.30733" lon="5.37714">
        <ele>740.3</ele>
        <time>2014-05-17T16:00:33Z</time>
      </trkpt>
      <trkpt lat="44.30688" lon="5.37703">
        <ele>728.8</ele>
        <time>2014-05-17T16:00:45Z</time>
      </trkpt>
      <trkpt lat="44.30642" lon="5.37686">
        <ele>721.8</ele>
        <time>2014-05-17T16:00:57Z</time>
      </trkpt>
      <trkpt lat="44.30596" lon="5.37685">
        <ele>710.7</ele>
        <time>2014-05-17T16:01:20Z</time>
      </trkpt>
      <trkpt lat="44.3055" lon="5.37669">
        <ele>698.9</ele>
        <time>2014-05-17T16:01:43Z</time>
      </trkpt>
      <trkpt lat="44.30506" lon="5.37645">
        <ele>686.8</ele>
        <time>2014-05-17T16:02:03Z</time>
      </trkpt>
      <trkpt lat="44.30461" lon="5.3762">
        <ele>682.1</ele>
        <time>2014-05-17T16:02:50Z</time>
      </trkpt>
      <trkpt lat="44.30421" lon="5.37595">
        <ele>679.7</ele>
        <time>2014-05-17T16:03:05Z</time>
      </trkpt>
      <trkpt lat="44.30386" lon="5.37561">
        <ele>681.5</ele>
        <time>2014-05-17T16:04:09Z</time>
      </trkpt>
      <trkpt lat="44.3039" lon="5.37497">
        <ele>683.9</ele>
        <time>2014-05-17T16:04:22Z</time>
      </trkpt>
      <trkpt lat="44.30416" lon="5.37447">
        <ele>686.2</ele>
        <time>2014-05-17T16:04:40Z</time>
      </trkpt>
      <trkpt lat="44.30411" lon="5.37437">
        <ele>683.6</ele>
        <time>2014-05-17T16:07:17Z</time>
      </trkpt>
      <trkpt lat="44.30365" lon="5.37468">
        <ele>675.2</ele>
        <time>2014-05-17T16:07:44Z</time>
      </trkpt>
      <trkpt lat="44.30317" lon="5.37499">
        <ele>663.4</ele>
        <time>2014-05-17T16:08:14Z</time>
      </trkpt>
      <trkpt lat="44.3029" lon="5.37554">
        <ele>653.9</ele>
        <time>2014-05-17T16:09:02Z</time>
      </trkpt>
      <trkpt lat="44.30242" lon="5.37577">
        <ele>632.2</ele>
        <time>2014-05-17T16:09:24Z</time>
      </trkpt>
      <trkpt lat="44.30202" lon="5.37591">
        <ele>614.7</ele>
        <time>2014-05-17T16:09:54Z</time>
      </trkpt>
      <trkpt lat="44.30172" lon="5.37554">
        <ele>603</ele>
        <time>2014-05-17T16:10:38Z</time>
      </trkpt>
      <trkpt lat="44.30144" lon="5.37583">
        <ele>589.4</ele>
        <time>2014-05-17T16:12:18Z</time>
      </trkpt>
      <trkpt lat="44.30131" lon="5.37544">
        <ele>582.8</ele>
        <time>2014-05-17T16:14:58Z</time>
      </trkpt>
      <trkpt lat="44.30126" lon="5.37532">
        <ele>579.5</ele>
        <time>2014-05-17T16:17:54Z</time>
      </trkpt>
      <trkpt lat="44.30123" lon="5.37597">
        <ele>577.4</ele>
        <time>2014-05-17T16:18:08Z</time>
      </trkpt>
      <trkpt lat="44.30122" lon="5.37662">
        <ele>571.4</ele>
        <time>2014-05-17T16:18:20Z</time>
      </trkpt>
      <trkpt lat="44.30125" lon="5.37718">
        <ele>564.3</ele>
        <time>2014-05-17T16:18:29Z</time>
      </trkpt>
      <trkpt lat="44.30092" lon="5.3767">
        <ele>560.1</ele>
        <time>2014-05-17T16:18:36Z</time>
      </trkpt>
      <trkpt lat="44.30089" lon="5.37648">
        <ele>559.2</ele>
        <time>2014-05-17T16:18:46Z</time>
      </trkpt>
      <trkpt lat="44.30069" lon="5.37706">
        <ele>553</ele>
        <time>2014-05-17T16:18:54Z</time>
      </trkpt>
      <trkpt lat="44.30067" lon="5.37655">
        <ele>552.1</ele>
        <time>2014-05-17T16:19:22Z</time>
      </trkpt>
      <trkpt lat="44.30076" lon="5.37587">
        <ele>554.4</ele>
        <time>2014-05-17T16:20:16Z</time>
      </trkpt>
      <trkpt lat="44.30078" lon="5.37517">
        <ele>555.1</ele>
        <time>2014-05-17T16:20:31Z</time>
      </trkpt>
      <trkpt lat="44.30058" lon="5.37455">
        <ele>551.6</ele>
        <time>2014-05-17T16:20:49Z</time>
      </trkpt>
      <trkpt lat="44.30037" lon="5.374">
        <ele>550.1</ele>
        <time>2014-05-17T16:21:24Z</time>
      </trkpt>
      <trkpt lat="44.30057" lon="5.3734">
        <ele>551</ele>
        <time>2014-05-17T16:22:59Z</time>
      </trkpt>
      <trkpt lat="44.30081" lon="5.37276">
        <ele>547.8</ele>
        <time>2014-05-17T16:23:07Z</time>
      </trkpt>
      <trkpt lat="44.30088" lon="5.37208">
        <ele>547.6</ele>
        <time>2014-05-17T16:23:14Z</time>
      </trkpt>
      <trkpt lat="44.30089" lon="5.37136">
        <ele>545.6</ele>
        <time>2014-05-17T16:23:21Z</time>
      </trkpt>
      <trkpt lat="44.3009" lon="5.37069">
        <ele>545</ele>
        <time>2014-05-17T16:23:28Z</time>
      </trkpt>
      <trkpt lat="44.30084" lon="5.37001">
        <ele>542.2</ele>
        <time>2014-05-17T16:23:35Z</time>
      </trkpt>
      <trkpt lat="44.30085" lon="5.36931">
        <ele>539.6</ele>
        <time>2014-05-17T16:23:42Z</time>
      </trkpt>
      <trkpt lat="44.301" lon="5.3686">
        <ele>539.4</ele>
        <time>2014-05-17T16:23:49Z</time>
      </trkpt>
      <trkpt lat="44.30115" lon="5.36792">
        <ele>539.5</ele>
        <time>2014-05-17T16:23:56Z</time>
      </trkpt>
      <trkpt lat="44.30119" lon="5.36726">
        <ele>537.1</ele>
        <time>2014-05-17T16:24:03Z</time>
      </trkpt>
      <trkpt lat="44.30123" lon="5.36662">
        <ele>538.5</ele>
        <time>2014-05-17T16:24:10Z</time>
      </trkpt>
      <trkpt lat="44.3012" lon="5.36591">
        <ele>535.1</ele>
        <time>2014-05-17T16:24:17Z</time>
      </trkpt>
      <trkpt lat="44.30114" lon="5.36519">
        <ele>534.8</ele>
        <time>2014-05-17T16:24:24Z</time>
      </trkpt>
      <trkpt lat="44.30092" lon="5.36455">
        <ele>534.5</ele>
        <time>2014-05-17T16:24:31Z</time>
      </trkpt>
      <trkpt lat="44.3006" lon="5.36399">
        <ele>534.2</ele>
        <time>2014-05-17T16:24:38Z</time>
      </trkpt>
      <trkpt lat="44.30039" lon="5.36336">
        <ele>532.9</ele>
        <time>2014-05-17T16:24:45Z</time>
      </trkpt>
      <trkpt lat="44.30025" lon="5.36273">
        <ele>534.1</ele>
        <time>2014-05-17T16:24:53Z</time>
      </trkpt>
      <trkpt lat="44.30012" lon="5.36206">
        <ele>535.4</ele>
        <time>2014-05-17T16:25:02Z</time>
      </trkpt>
      <trkpt lat="44.29999" lon="5.36143">
        <ele>531.8</ele>
        <time>2014-05-17T16:25:11Z</time>
      </trkpt>
      <trkpt lat="44.29995" lon="5.36079">
        <ele>530.6</ele>
        <time>2014-05-17T16:25:20Z</time>
      </trkpt>
      <trkpt lat="44.30015" lon="5.36012">
        <ele>532</ele>
        <time>2014-05-17T16:25:30Z</time>
      </trkpt>
      <trkpt lat="44.30031" lon="5.35953">
        <ele>530.1</ele>
        <time>2014-05-17T16:25:40Z</time>
      </trkpt>
      <trkpt lat="44.30053" lon="5.35894">
        <ele>530</ele>
        <time>2014-05-17T16:25:50Z</time>
      </trkpt>
      <trkpt lat="44.30076" lon="5.35839">
        <ele>531.2</ele>
        <time>2014-05-17T16:25:59Z</time>
      </trkpt>
      <trkpt lat="44.30093" lon="5.35774">
        <ele>531.3</ele>
        <time>2014-05-17T16:26:09Z</time>
      </trkpt>
      <trkpt lat="44.30105" lon="5.35709">
        <ele>530.4</ele>
        <time>2014-05-17T16:26:19Z</time>
      </trkpt>
      <trkpt lat="44.30115" lon="5.35644">
        <ele>528.7</ele>
        <time>2014-05-17T16:26:28Z</time>
      </trkpt>
      <trkpt lat="44.30126" lon="5.35578">
        <ele>528.4</ele>
        <time>2014-05-17T16:26:37Z</time>
      </trkpt>
      <trkpt lat="44.30134" lon="5.35508">
        <ele>530.1</ele>
        <time>2014-05-17T16:26:46Z</time>
      </trkpt>
      <trkpt lat="44.30137" lon="5.35445">
        <ele>527.4</ele>
        <time>2014-05-17T16:26:55Z</time>
      </trkpt>
      <trkpt lat="44.30147" lon="5.35379">
        <ele>526.6</ele>
        <time>2014-05-17T16:27:04Z</time>
      </trkpt>
      <trkpt lat="44.30144" lon="5.3531">
        <ele>522.3</ele>
        <time>2014-05-17T16:27:13Z</time>
      </trkpt>
      <trkpt lat="44.30155" lon="5.35241">
        <ele>522.1</ele>
        <time>2014-05-17T16:27:21Z</time>
      </trkpt>
      <trkpt lat="44.30175" lon="5.35181">
        <ele>523.3</ele>
        <time>2014-05-17T16:27:28Z</time>
      </trkpt>
      <trkpt lat="44.30194" lon="5.35115">
        <ele>523.4</ele>
        <time>2014-05-17T16:27:36Z</time>
      </trkpt>
      <trkpt lat="44.30202" lon="5.3505">
        <ele>527.7</ele>
        <time>2014-05-17T16:27:43Z</time>
      </trkpt>
      <trkpt lat="44.30201" lon="5.34982">
        <ele>524.1</ele>
        <time>2014-05-17T16:27:50Z</time>
      </trkpt>
      <trkpt lat="44.30187" lon="5.34916">
        <ele>522.5</ele>
        <time>2014-05-17T16:27:58Z</time>
      </trkpt>
      <trkpt lat="44.30153" lon="5.34863">
        <ele>517.5</ele>
        <time>2014-05-17T16:28:06Z</time>
      </trkpt>
      <trkpt lat="44.30127" lon="5.34811">
        <ele>516.5</ele>
        <time>2014-05-17T16:28:13Z</time>
      </trkpt>
      <trkpt lat="44.30106" lon="5.34753">
        <ele>513</ele>
        <time>2014-05-17T16:28:21Z</time>
      </trkpt>
      <trkpt lat="44.3009" lon="5.3469">
        <ele>510.4</ele>
        <time>2014-05-17T16:28:29Z</time>
      </trkpt>
      <trkpt lat="44.30083" lon="5.34625">
        <ele>509</ele>
        <time>2014-05-17T16:28:38Z</time>
      </trkpt>
      <trkpt lat="44.30083" lon="5.3456">
        <ele>511.6</ele>
        <time>2014-05-17T16:28:48Z</time>
      </trkpt>
      <trkpt lat="44.30082" lon="5.34492">
        <ele>516</ele>
        <time>2014-05-17T16:28:58Z</time>
      </trkpt>
      <trkpt lat="44.30078" lon="5.34422">
        <ele>517.7</ele>
        <time>2014-05-17T16:29:08Z</time>
      </trkpt>
      <trkpt lat="44.30071" lon="5.34358">
        <ele>517.2</ele>
        <time>2014-05-17T16:29:17Z</time>
      </trkpt>
      <trkpt lat="44.30062" lon="5.34296">
        <ele>515.5</ele>
        <time>2014-05-17T16:29:26Z</time>
      </trkpt>
      <trkpt lat="44.30046" lon="5.34229">
        <ele>513.9</ele>
        <time>2014-05-17T16:29:35Z</time>
      </trkpt>
      <trkpt lat="44.30026" lon="5.34173">
        <ele>511.2</ele>
        <time>2014-05-17T16:29:42Z</time>
      </trkpt>
      <trkpt lat="44.30013" lon="5.34111">
        <ele>513.1</ele>
        <time>2014-05-17T16:29:49Z</time>
      </trkpt>
      <trkpt lat="44.29985" lon="5.34057">
        <ele>510.2</ele>
        <time>2014-05-17T16:29:56Z</time>
      </trkpt>
      <trkpt lat="44.29958" lon="5.34005">
        <ele>508.2</ele>
        <time>2014-05-17T16:30:03Z</time>
      </trkpt>
      <trkpt lat="44.29943" lon="5.33943">
        <ele>508.8</ele>
        <time>2014-05-17T16:30:11Z</time>
      </trkpt>
      <trkpt lat="44.29935" lon="5.33873">
        <ele>509</ele>
        <time>2014-05-17T16:30:20Z</time>
      </trkpt>
      <trkpt lat="44.29924" lon="5.33806">
        <ele>509.7</ele>
        <time>2014-05-17T16:30:29Z</time>
      </trkpt>
      <trkpt lat="44.29914" lon="5.33743">
        <ele>509.7</ele>
        <time>2014-05-17T16:30:38Z</time>
      </trkpt>
      <trkpt lat="44.29906" lon="5.33673">
        <ele>509.5</ele>
        <time>2014-05-17T16:30:48Z</time>
      </trkpt>
      <trkpt lat="44.29906" lon="5.33603">
        <ele>511.4</ele>
        <time>2014-05-17T16:30:59Z</time>
      </trkpt>
      <trkpt lat="44.29901" lon="5.33537">
        <ele>512.1</ele>
        <time>2014-05-17T16:31:09Z</time>
      </trkpt>
      <trkpt lat="44.29893" lon="5.33469">
        <ele>510</ele>
        <time>2014-05-17T16:31:20Z</time>
      </trkpt>
      <trkpt lat="44.29894" lon="5.33396">
        <ele>510</ele>
        <time>2014-05-17T16:31:30Z</time>
      </trkpt>
      <trkpt lat="44.29888" lon="5.33331">
        <ele>509.9</ele>
        <time>2014-05-17T16:31:39Z</time>
      </trkpt>
      <trkpt lat="44.2987" lon="5.33272">
        <ele>506.7</ele>
        <time>2014-05-17T16:31:47Z</time>
      </trkpt>
      <trkpt lat="44.29855" lon="5.3321">
        <ele>505.7</ele>
        <time>2014-05-17T16:31:55Z</time>
      </trkpt>
      <trkpt lat="44.29866" lon="5.33142">
        <ele>505.5</ele>
        <time>2014-05-17T16:32:03Z</time>
      </trkpt>
      <trkpt lat="44.2989" lon="5.33077">
        <ele>506.1</ele>
        <time>2014-05-17T16:32:12Z</time>
      </trkpt>
      <trkpt lat="44.29914" lon="5.33022">
        <ele>509.3</ele>
        <time>2014-05-17T16:32:21Z</time>
      </trkpt>
      <trkpt lat="44.2994" lon="5.3297">
        <ele>509.9</ele>
        <time>2014-05-17T16:32:31Z</time>
      </trkpt>
      <trkpt lat="44.29967" lon="5.32916">
        <ele>507.6</ele>
        <time>2014-05-17T16:32:40Z</time>
      </trkpt>
      <trkpt lat="44.29994" lon="5.3286">
        <ele>506.7</ele>
        <time>2014-05-17T16:32:50Z</time>
      </trkpt>
      <trkpt lat="44.3002" lon="5.32807">
        <ele>509</ele>
        <time>2014-05-17T16:32:59Z</time>
      </trkpt>
      <trkpt lat="44.30047" lon="5.32752">
        <ele>511</ele>
        <time>2014-05-17T16:33:08Z</time>
      </trkpt>
      <trkpt lat="44.30057" lon="5.32691">
        <ele>509</ele>
        <time>2014-05-17T16:33:17Z</time>
      </trkpt>
      <trkpt lat="44.30051" lon="5.32623">
        <ele>508.6</ele>
        <time>2014-05-17T16:33:26Z</time>
      </trkpt>
      <trkpt lat="44.30054" lon="5.32551">
        <ele>505.1</ele>
        <time>2014-05-17T16:33:35Z</time>
      </trkpt>
      <trkpt lat="44.30058" lon="5.32485">
        <ele>504</ele>
        <time>2014-05-17T16:33:43Z</time>
      </trkpt>
      <trkpt lat="44.30083" lon="5.32426">
        <ele>501.3</ele>
        <time>2014-05-17T16:33:50Z</time>
      </trkpt>
      <trkpt lat="44.30109" lon="5.32367">
        <ele>497.3</ele>
        <time>2014-05-17T16:33:57Z</time>
      </trkpt>
      <trkpt lat="44.30134" lon="5.32305">
        <ele>500.7</ele>
        <time>2014-05-17T16:34:06Z</time>
      </trkpt>
      <trkpt lat="44.30145" lon="5.32239">
        <ele>501.4</ele>
        <time>2014-05-17T16:34:16Z</time>
      </trkpt>
      <trkpt lat="44.30153" lon="5.32175">
        <ele>501.7</ele>
        <time>2014-05-17T16:34:25Z</time>
      </trkpt>
      <trkpt lat="44.30162" lon="5.32109">
        <ele>502.6</ele>
        <time>2014-05-17T16:34:34Z</time>
      </trkpt>
      <trkpt lat="44.30168" lon="5.32041">
        <ele>500.2</ele>
        <time>2014-05-17T16:34:43Z</time>
      </trkpt>
      <trkpt lat="44.30169" lon="5.3197">
        <ele>502.2</ele>
        <time>2014-05-17T16:34:52Z</time>
      </trkpt>
      <trkpt lat="44.3017" lon="5.31907">
        <ele>502.3</ele>
        <time>2014-05-17T16:35:00Z</time>
      </trkpt>
      <trkpt lat="44.30162" lon="5.31841">
        <ele>501.6</ele>
        <time>2014-05-17T16:35:10Z</time>
      </trkpt>
      <trkpt lat="44.30137" lon="5.31792">
        <ele>501.7</ele>
        <time>2014-05-17T16:36:12Z</time>
      </trkpt>
      <trkpt lat="44.30111" lon="5.31735">
        <ele>500</ele>
        <time>2014-05-17T16:36:22Z</time>
      </trkpt>
      <trkpt lat="44.30083" lon="5.31677">
        <ele>498</ele>
        <time>2014-05-17T16:36:30Z</time>
      </trkpt>
      <trkpt lat="44.30055" lon="5.31619">
        <ele>493.8</ele>
        <time>2014-05-17T16:36:37Z</time>
      </trkpt>
      <trkpt lat="44.30028" lon="5.3156">
        <ele>492.8</ele>
        <time>2014-05-17T16:36:43Z</time>
      </trkpt>
      <trkpt lat="44.29995" lon="5.31507">
        <ele>491.8</ele>
        <time>2014-05-17T16:36:49Z</time>
      </trkpt>
      <trkpt lat="44.29961" lon="5.31461">
        <ele>488.7</ele>
        <time>2014-05-17T16:36:55Z</time>
      </trkpt>
      <trkpt lat="44.29915" lon="5.3143">
        <ele>484.4</ele>
        <time>2014-05-17T16:37:02Z</time>
      </trkpt>
      <trkpt lat="44.29885" lon="5.31389">
        <ele>477.6</ele>
        <time>2014-05-17T16:37:09Z</time>
      </trkpt>
      <trkpt lat="44.29896" lon="5.31326">
        <ele>476.3</ele>
        <time>2014-05-17T16:37:17Z</time>
      </trkpt>
      <trkpt lat="44.29904" lon="5.31255">
        <ele>477.7</ele>
        <time>2014-05-17T16:37:24Z</time>
      </trkpt>
      <trkpt lat="44.29908" lon="5.31182">
        <ele>477.3</ele>
        <time>2014-05-17T16:37:31Z</time>
      </trkpt>
      <trkpt lat="44.29894" lon="5.31112">
        <ele>475.1</ele>
        <time>2014-05-17T16:37:38Z</time>
      </trkpt>
      <trkpt lat="44.29873" lon="5.31049">
        <ele>477.8</ele>
        <time>2014-05-17T16:37:44Z</time>
      </trkpt>
      <trkpt lat="44.29857" lon="5.30986">
        <ele>475.3</ele>
        <time>2014-05-17T16:37:50Z</time>
      </trkpt>
      <trkpt lat="44.29869" lon="5.30911">
        <ele>469.4</ele>
        <time>2014-05-17T16:37:56Z</time>
      </trkpt>
      <trkpt lat="44.29861" lon="5.30849">
        <ele>466.6</ele>
        <time>2014-05-17T16:38:02Z</time>
      </trkpt>
      <trkpt lat="44.29866" lon="5.30784">
        <ele>496</ele>
        <time>2014-05-17T16:38:11Z</time>
      </trkpt>
      <trkpt lat="44.29871" lon="5.3072">
        <ele>505</ele>
        <time>2014-05-17T16:38:20Z</time>
      </trkpt>
      <trkpt lat="44.29996" lon="5.3071">
        <ele>470.6</ele>
        <time>2014-05-17T16:38:29Z</time>
      </trkpt>
      <trkpt lat="44.30049" lon="5.30721">
        <ele>466.5</ele>
        <time>2014-05-17T16:38:36Z</time>
      </trkpt>
      <trkpt lat="44.30096" lon="5.30724">
        <ele>466.3</ele>
        <time>2014-05-17T16:38:43Z</time>
      </trkpt>
      <trkpt lat="44.30124" lon="5.30676">
        <ele>469.8</ele>
        <time>2014-05-17T16:38:50Z</time>
      </trkpt>
      <trkpt lat="44.30135" lon="5.3061">
        <ele>467.9</ele>
        <time>2014-05-17T16:38:58Z</time>
      </trkpt>
      <trkpt lat="44.30163" lon="5.30558">
        <ele>471.5</ele>
        <time>2014-05-17T16:39:07Z</time>
      </trkpt>
      <trkpt lat="44.30171" lon="5.30493">
        <ele>469.4</ele>
        <time>2014-05-17T16:39:16Z</time>
      </trkpt>
      <trkpt lat="44.30186" lon="5.30432">
        <ele>470.8</ele>
        <time>2014-05-17T16:39:24Z</time>
      </trkpt>
      <trkpt lat="44.30195" lon="5.30367">
        <ele>472.7</ele>
        <time>2014-05-17T16:39:32Z</time>
      </trkpt>
      <trkpt lat="44.30184" lon="5.30304">
        <ele>474.9</ele>
        <time>2014-05-17T16:39:41Z</time>
      </trkpt>
      <trkpt lat="44.30171" lon="5.30239">
        <ele>472.2</ele>
        <time>2014-05-17T16:39:51Z</time>
      </trkpt>
      <trkpt lat="44.30172" lon="5.30176">
        <ele>476.1</ele>
        <time>2014-05-17T16:40:00Z</time>
      </trkpt>
      <trkpt lat="44.30166" lon="5.30112">
        <ele>472.8</ele>
        <time>2014-05-17T16:40:09Z</time>
      </trkpt>
      <trkpt lat="44.30193" lon="5.30057">
        <ele>472.6</ele>
        <time>2014-05-17T16:40:18Z</time>
      </trkpt>
      <trkpt lat="44.30225" lon="5.30014">
        <ele>475.5</ele>
        <time>2014-05-17T16:40:26Z</time>
      </trkpt>
      <trkpt lat="44.30249" lon="5.29956">
        <ele>475.7</ele>
        <time>2014-05-17T16:40:34Z</time>
      </trkpt>
      <trkpt lat="44.30259" lon="5.29891">
        <ele>472.8</ele>
        <time>2014-05-17T16:40:42Z</time>
      </trkpt>
      <trkpt lat="44.30232" lon="5.29839">
        <ele>470.6</ele>
        <time>2014-05-17T16:40:49Z</time>
      </trkpt>
      <trkpt lat="44.30196" lon="5.29789">
        <ele>465.9</ele>
        <time>2014-05-17T16:40:56Z</time>
      </trkpt>
      <trkpt lat="44.30178" lon="5.29727">
        <ele>464.1</ele>
        <time>2014-05-17T16:41:03Z</time>
      </trkpt>
      <trkpt lat="44.30167" lon="5.29661">
        <ele>464.4</ele>
        <time>2014-05-17T16:41:10Z</time>
      </trkpt>
      <trkpt lat="44.30158" lon="5.2959">
        <ele>464.1</ele>
        <time>2014-05-17T16:41:17Z</time>
      </trkpt>
      <trkpt lat="44.30129" lon="5.29538">
        <ele>461</ele>
        <time>2014-05-17T16:41:23Z</time>
      </trkpt>
      <trkpt lat="44.3011" lon="5.29475">
        <ele>460.4</ele>
        <time>2014-05-17T16:41:30Z</time>
      </trkpt>
      <trkpt lat="44.30115" lon="5.29409">
        <ele>457.1</ele>
        <time>2014-05-17T16:41:36Z</time>
      </trkpt>
      <trkpt lat="44.30133" lon="5.29345">
        <ele>454.3</ele>
        <time>2014-05-17T16:41:41Z</time>
      </trkpt>
      <trkpt lat="44.30155" lon="5.29285">
        <ele>452.9</ele>
        <time>2014-05-17T16:41:46Z</time>
      </trkpt>
      <trkpt lat="44.30143" lon="5.2922">
        <ele>450.9</ele>
        <time>2014-05-17T16:41:51Z</time>
      </trkpt>
      <trkpt lat="44.30105" lon="5.29172">
        <ele>445.8</ele>
        <time>2014-05-17T16:41:56Z</time>
      </trkpt>
      <trkpt lat="44.30079" lon="5.29108">
        <ele>445</ele>
        <time>2014-05-17T16:42:01Z</time>
      </trkpt>
      <trkpt lat="44.30051" lon="5.29046">
        <ele>438.2</ele>
        <time>2014-05-17T16:42:06Z</time>
      </trkpt>
      <trkpt lat="44.30045" lon="5.28976">
        <ele>439.2</ele>
        <time>2014-05-17T16:42:11Z</time>
      </trkpt>
      <trkpt lat="44.30035" lon="5.28911">
        <ele>439.8</ele>
        <time>2014-05-17T16:42:16Z</time>
      </trkpt>
      <trkpt lat="44.30026" lon="5.28844">
        <ele>437.1</ele>
        <time>2014-05-17T16:42:21Z</time>
      </trkpt>
      <trkpt lat="44.30008" lon="5.28781">
        <ele>435.4</ele>
        <time>2014-05-17T16:42:26Z</time>
      </trkpt>
      <trkpt lat="44.29981" lon="5.28721">
        <ele>434.7</ele>
        <time>2014-05-17T16:42:31Z</time>
      </trkpt>
      <trkpt lat="44.29953" lon="5.28667">
        <ele>433.4</ele>
        <time>2014-05-17T16:42:36Z</time>
      </trkpt>
      <trkpt lat="44.29912" lon="5.28625">
        <ele>430.7</ele>
        <time>2014-05-17T16:42:41Z</time>
      </trkpt>
      <trkpt lat="44.29874" lon="5.28578">
        <ele>428.3</ele>
        <time>2014-05-17T16:42:46Z</time>
      </trkpt>
      <trkpt lat="44.2984" lon="5.28527">
        <ele>425.6</ele>
        <time>2014-05-17T16:42:51Z</time>
      </trkpt>
      <trkpt lat="44.29804" lon="5.28476">
        <ele>422</ele>
        <time>2014-05-17T16:42:56Z</time>
      </trkpt>
      <trkpt lat="44.29763" lon="5.2843">
        <ele>417.7</ele>
        <time>2014-05-17T16:43:01Z</time>
      </trkpt>
      <trkpt lat="44.29722" lon="5.28386">
        <ele>414.4</ele>
        <time>2014-05-17T16:43:06Z</time>
      </trkpt>
      <trkpt lat="44.29683" lon="5.2834">
        <ele>409.9</ele>
        <time>2014-05-17T16:43:11Z</time>
      </trkpt>
      <trkpt lat="44.29667" lon="5.28278">
        <ele>410.1</ele>
        <time>2014-05-17T16:43:16Z</time>
      </trkpt>
      <trkpt lat="44.29631" lon="5.28242">
        <ele>409.7</ele>
        <time>2014-05-17T16:43:21Z</time>
      </trkpt>
      <trkpt lat="44.29585" lon="5.28212">
        <ele>403.9</ele>
        <time>2014-05-17T16:43:26Z</time>
      </trkpt>
      <trkpt lat="44.29538" lon="5.28188">
        <ele>401.6</ele>
        <time>2014-05-17T16:43:31Z</time>
      </trkpt>
      <trkpt lat="44.2949" lon="5.28182">
        <ele>400.6</ele>
        <time>2014-05-17T16:43:36Z</time>
      </trkpt>
      <trkpt lat="44.29452" lon="5.28146">
        <ele>404.6</ele>
        <time>2014-05-17T16:43:42Z</time>
      </trkpt>
      <trkpt lat="44.29434" lon="5.28077">
        <ele>400.2</ele>
        <time>2014-05-17T16:43:48Z</time>
      </trkpt>
      <trkpt lat="44.29404" lon="5.28026">
        <ele>397.9</ele>
        <time>2014-05-17T16:43:54Z</time>
      </trkpt>
      <trkpt lat="44.29357" lon="5.28001">
        <ele>396.3</ele>
        <time>2014-05-17T16:44:01Z</time>
      </trkpt>
      <trkpt lat="44.29309" lon="5.28031">
        <ele>398.2</ele>
        <time>2014-05-17T16:44:07Z</time>
      </trkpt>
      <trkpt lat="44.29258" lon="5.28061">
        <ele>398.4</ele>
        <time>2014-05-17T16:44:13Z</time>
      </trkpt>
      <trkpt lat="44.29209" lon="5.28077">
        <ele>398.3</ele>
        <time>2014-05-17T16:44:19Z</time>
      </trkpt>
      <trkpt lat="44.2916" lon="5.28089">
        <ele>394</ele>
        <time>2014-05-17T16:44:25Z</time>
      </trkpt>
      <trkpt lat="44.29107" lon="5.28109">
        <ele>393.4</ele>
        <time>2014-05-17T16:44:31Z</time>
      </trkpt>
      <trkpt lat="44.29057" lon="5.28122">
        <ele>391.6</ele>
        <time>2014-05-17T16:44:37Z</time>
      </trkpt>
      <trkpt lat="44.2901" lon="5.28146">
        <ele>391.5</ele>
        <time>2014-05-17T16:44:43Z</time>
      </trkpt>
      <trkpt lat="44.28963" lon="5.28169">
        <ele>391.6</ele>
        <time>2014-05-17T16:44:49Z</time>
      </trkpt>
      <trkpt lat="44.2892" lon="5.28191">
        <ele>391.8</ele>
        <time>2014-05-17T16:44:54Z</time>
      </trkpt>
      <trkpt lat="44.28876" lon="5.28216">
        <ele>391.8</ele>
        <time>2014-05-17T16:44:59Z</time>
      </trkpt>
      <trkpt lat="44.28833" lon="5.28239">
        <ele>391.7</ele>
        <time>2014-05-17T16:45:04Z</time>
      </trkpt>
      <trkpt lat="44.2879" lon="5.28264">
        <ele>391.9</ele>
        <time>2014-05-17T16:45:10Z</time>
      </trkpt>
      <trkpt lat="44.28747" lon="5.28287">
        <ele>391.9</ele>
        <time>2014-05-17T16:45:17Z</time>
      </trkpt>
      <trkpt lat="44.28704" lon="5.28308">
        <ele>392.5</ele>
        <time>2014-05-17T16:45:24Z</time>
      </trkpt>
      <trkpt lat="44.28653" lon="5.28311">
        <ele>390.9</ele>
        <time>2014-05-17T16:45:31Z</time>
      </trkpt>
      <trkpt lat="44.28607" lon="5.28322">
        <ele>389</ele>
        <time>2014-05-17T16:45:37Z</time>
      </trkpt>
      <trkpt lat="44.28565" lon="5.28354">
        <ele>389.1</ele>
        <time>2014-05-17T16:45:43Z</time>
      </trkpt>
      <trkpt lat="44.28517" lon="5.28368">
        <ele>388.5</ele>
        <time>2014-05-17T16:45:50Z</time>
      </trkpt>
      <trkpt lat="44.28471" lon="5.28366">
        <ele>387.5</ele>
        <time>2014-05-17T16:45:57Z</time>
      </trkpt>
      <trkpt lat="44.28428" lon="5.28365">
        <ele>386.8</ele>
        <time>2014-05-17T16:46:10Z</time>
      </trkpt>
      <trkpt lat="44.28433" lon="5.28311">
        <ele>383.4</ele>
        <time>2014-05-17T16:47:05Z</time>
      </trkpt>
      <trkpt lat="44.28418" lon="5.28244">
        <ele>379.8</ele>
        <time>2014-05-17T16:47:53Z</time>
      </trkpt>
      <trkpt lat="44.28416" lon="5.28191">
        <ele>377.9</ele>
        <time>2014-05-17T16:48:02Z</time>
      </trkpt>
      <trkpt lat="44.28458" lon="5.28194">
        <ele>377</ele>
        <time>2014-05-17T16:48:13Z</time>
      </trkpt>
      <trkpt lat="44.28483" lon="5.28228">
        <ele>378.4</ele>
        <time>2014-05-17T16:48:27Z</time>
      </trkpt>
    </trkseg>
  </trk>
</gpx>